createdAt,value
2022-07-30T00:04:18.476Z,5.30
2022-07-30T00:24:24.259Z,7.31
2022-07-30T00:44:30.527Z,9.47
2022-07-30T01:04:36.314Z,9.48
2022-07-30T01:24:42.584Z,9.02
2022-07-30T01:44:49.524Z,8.92
2022-07-30T02:04:55.252Z,8.42
2022-07-30T02:25:01.456Z,8.05
2022-07-30T02:45:07.212Z,7.83
2022-07-30T03:05:12.968Z,7.14
2022-07-30T03:25:18.704Z,8.29
2022-07-30T03:45:26.150Z,9.19
2022-07-30T04:05:37.720Z,9.06
2022-07-30T04:25:37.255Z,8.46
2022-07-30T04:45:43.115Z,8.84
2022-07-30T05:05:49.783Z,8.49
2022-07-30T05:25:54.204Z,8.40
2022-07-30T05:46:00.111Z,7.35
2022-07-30T06:06:06.390Z,6.79
2022-07-30T06:26:12.750Z,7.16
2022-07-30T06:46:19.085Z,5.13
2022-07-30T07:06:24.770Z,4.46
2022-07-30T07:26:31.062Z,7.17
2022-07-30T07:46:36.982Z,5.65
2022-07-30T08:06:43.297Z,4.75
2022-07-30T08:26:49.582Z,4.74
2022-07-30T08:46:55.854Z,3.44
2022-07-30T09:07:02.282Z,2.99
2022-07-30T09:27:07.576Z,2.76
2022-07-30T09:47:13.193Z,2.72
2022-07-30T10:07:25.499Z,2.63
2022-07-30T10:27:25.740Z,2.52
2022-07-30T10:47:33.556Z,2.71
2022-07-30T11:07:37.726Z,2.75
2022-07-30T11:27:45.883Z,1.75
2022-07-30T11:47:49.753Z,1.90
2022-07-30T12:07:55.509Z,1.75
2022-07-30T12:28:01.786Z,1.95
2022-07-30T12:48:08.103Z,1.54
2022-07-30T13:08:14.557Z,2.10
2022-07-30T13:28:20.762Z,1.79
2022-07-30T13:48:26.947Z,2.62
2022-07-30T14:08:33.183Z,2.16
2022-07-30T14:28:39.470Z,1.77
2022-07-30T14:48:45.462Z,2.44
2022-07-30T15:08:51.677Z,2.52
2022-07-30T15:28:57.912Z,2.36
2022-07-30T15:49:03.752Z,2.23
2022-07-30T16:09:09.444Z,2.26
2022-07-30T16:29:15.737Z,2.59
2022-07-30T16:49:22.025Z,3.43
2022-07-30T17:09:28.186Z,3.10
2022-07-30T17:29:33.928Z,3.37
2022-07-30T17:49:40.180Z,3.10
2022-07-30T18:09:46.401Z,2.81
2022-07-30T18:29:52.625Z,2.26
2022-07-30T18:49:58.932Z,2.53
2022-07-30T19:10:05.070Z,2.06
2022-07-30T19:30:11.281Z,3.28
2022-07-30T19:50:17.524Z,2.23
2022-07-30T20:10:23.745Z,4.09
2022-07-30T20:30:29.985Z,2.50
2022-07-30T20:50:35.325Z,2.62
2022-07-30T21:10:44.489Z,3.01
2022-07-30T21:30:46.868Z,3.34
2022-07-30T21:50:52.703Z,3.07
2022-07-30T22:10:58.499Z,3.07
2022-07-30T22:31:05.694Z,3.13
2022-07-30T22:51:11.801Z,2.93
2022-07-30T23:11:15.867Z,3.81
2022-07-30T23:31:26.450Z,2.99
2022-07-30T23:51:26.952Z,3.50
